Time;durP1;ratioP1;P1;durP2;ratioP2;P2;SDS_P1;SDS_P2;PMS_P1;PMS_P2;Temp;Humidity;BMP_temperature;BMP_pressure;BME280_temperature;BME280_humidity;BME280_pressure;Samples;Min_cycle;Max_cycle;Signal;HPM_P1;HPM_P2
2022/09/12 00:00:49;;;;;;;5.47;1.80;;;;;;;;;;4951329;29;20079;-78
2022/09/12 00:03:16;;;;;;;3.08;1.55;;;;;;;;;;4950305;29;20036;-77
2022/09/12 00:05:47;;;;;;;3.88;1.55;;;;;;;;;;4950563;29;20050;-79
2022/09/12 00:08:19;;;;;;;1.98;1.33;;;;;;;;;;4952390;29;20091;-78
2022/09/12 00:10:45;;;;;;;3.42;1.58;;;;;;;;;;4953587;29;20031;-78
2022/09/12 00:13:11;;;;;;;2.33;1.25;;;;;;;;;;4955490;29;20020;-78
2022/09/12 00:15:44;;;;;;;4.32;1.38;;;;;;;;;;4951533;29;20026;-76
2022/09/12 00:18:15;;;;;;;1.80;1.43;;;;;;;;;;4937287;29;20434;-78
2022/09/12 00:20:45;;;;;;;3.22;1.40;;;;;;;;;;4949331;29;20035;-77
2022/09/12 00:23:13;;;;;;;1.48;1.20;;;;;;;;;;4938454;29;20095;-77
2022/09/12 00:25:46;;;;;;;3.05;1.30;;;;;;;;;;4953508;29;20500;-78
2022/09/12 00:28:13;;;;;;;1.00;1.00;;;;;;;;;;4945522;29;20027;-76
2022/09/12 00:30:43;;;;;;;1.80;1.33;;;;;;;;;;4940941;29;20031;-77
2022/09/12 00:33:11;;;;;;;2.42;1.20;;;;;;;;;;4947499;29;20059;-78
2022/09/12 00:35:41;;;;;;;1.58;1.05;;;;;;;;;;4948115;29;20023;-76
2022/09/12 00:38:07;;;;;;;1.08;1.02;;;;;;;;;;4942156;29;20028;-78
2022/09/12 00:40:33;;;;;;;1.08;1.02;;;;;;;;;;4946266;29;20425;-78
2022/09/12 00:42:59;;;;;;;1.13;1.02;;;;;;;;;;4950974;29;20036;-78
2022/09/12 00:45:27;;;;;;;2.50;1.38;;;;;;;;;;4959061;29;20034;-78
2022/09/12 00:47:53;;;;;;;3.95;1.13;;;;;;;;;;4930169;29;20048;-78
2022/09/12 00:50:19;;;;;;;1.55;1.23;;;;;;;;;;4936091;29;20040;-78
2022/09/12 00:52:47;;;;;;;2.95;1.10;;;;;;;;;;4941216;29;20057;-77
2022/09/12 00:55:19;;;;;;;1.95;1.35;;;;;;;;;;4950638;29;20035;-77
2022/09/12 00:57:49;;;;;;;1.00;1.00;;;;;;;;;;4952173;29;20031;-78
2022/09/12 01:00:17;;;;;;;1.35;1.15;;;;;;;;;;4947947;29;20087;-76
2022/09/12 01:02:45;;;;;;;1.25;1.17;;;;;;;;;;4950234;29;20389;-77
2022/09/12 01:05:12;;;;;;;2.83;1.35;;;;;;;;;;4955087;29;20037;-77
2022/09/12 01:07:43;;;;;;;2.63;1.50;;;;;;;;;;4957261;29;20024;-78
2022/09/12 01:10:12;;;;;;;2.28;1.50;;;;;;;;;;4953997;29;20016;-78
2022/09/12 01:12:44;;;;;;;4.95;1.30;;;;;;;;;;4950631;29;20056;-77
2022/09/12 01:15:12;;;;;;;3.37;1.70;;;;;;;;;;4954860;29;20028;-78
2022/09/12 01:17:53;;;;;;;2.88;1.70;;;;;;;;;;4951125;29;20012;-77
2022/09/12 01:20:32;;;;;;;2.60;1.50;;;;;;;;;;4955216;29;20039;-77
2022/09/12 01:23:16;;;;;;;3.38;1.52;;;;;;;;;;4951985;29;20023;-78
2022/09/12 01:25:48;;;;;;;1.67;1.58;;;;;;;;;;4953261;29;20068;-77
2022/09/12 01:28:20;;;;;;;2.03;1.45;;;;;;;;;;4950328;29;20031;-78
2022/09/12 01:30:59;;;;;;;2.58;1.70;;;;;;;;;;4947416;29;20032;-78
2022/09/12 01:33:25;;;;;;;2.42;1.30;;;;;;;;;;4951013;29;20053;-78
2022/09/12 01:36:11;;;;;;;4.95;1.85;;;;;;;;;;4954383;29;20032;-78
2022/09/12 01:38:39;;;;;;;1.52;1.30;;;;;;;;;;4949631;29;20048;-77
2022/09/12 01:41:25;;;;;;;1.85;1.50;;;;;;;;;;4949047;29;20051;-77
2022/09/12 01:43:57;;;;;;;3.65;1.40;;;;;;;;;;4938120;29;20039;-77
2022/09/12 01:46:35;;;;;;;1.40;1.30;;;;;;;;;;4946489;29;20043;-77
2022/09/12 01:52:14;;;;;;;3.95;1.60;;;;;;;;;;5045813;23;20055;-77
2022/09/12 01:54:54;;;;;;;1.63;1.30;;;;;;;;;;4929945;29;20066;-78
2022/09/12 01:57:24;;;;;;;1.88;1.40;;;;;;;;;;4950288;29;20023;-75
2022/09/12 01:59:52;;;;;;;3.00;1.73;;;;;;;;;;4924618;29;20028;-78
2022/09/12 02:02:23;;;;;;;7.10;1.73;;;;;;;;;;4947540;29;20035;-78
2022/09/12 02:04:56;;;;;;;7.22;1.85;;;;;;;;;;4933613;29;20035;-78
2022/09/12 02:07:29;;;;;;;4.50;1.63;;;;;;;;;;4957381;29;20043;-78
2022/09/12 02:10:03;;;;;;;1.87;1.60;;;;;;;;;;4952901;29;20080;-79
2022/09/12 02:12:35;;;;;;;6.00;1.70;;;;;;;;;;4928801;29;20028;-77
2022/09/12 02:15:03;;;;;;;2.58;1.42;;;;;;;;;;4953116;29;20051;-78
2022/09/12 02:17:30;;;;;;;2.90;1.50;;;;;;;;;;4956061;29;20154;-78
2022/09/12 02:20:06;;;;;;;8.50;1.77;;;;;;;;;;4952762;29;20031;-78
2022/09/12 02:22:35;;;;;;;4.93;1.65;;;;;;;;;;4941830;29;20036;-78
2022/09/12 02:25:04;;;;;;;6.07;2.00;;;;;;;;;;4937715;29;20070;-77
2022/09/12 02:27:37;;;;;;;4.28;1.70;;;;;;;;;;4937835;29;20083;-77
2022/09/12 02:30:06;;;;;;;2.15;1.58;;;;;;;;;;4948654;29;20087;-78
2022/09/12 02:32:43;;;;;;;2.92;1.60;;;;;;;;;;4936938;29;20035;-78
2022/09/12 02:35:24;;;;;;;2.67;1.95;;;;;;;;;;4924641;29;20168;-78
2022/09/12 02:38:02;;;;;;;3.92;1.95;;;;;;;;;;4937580;29;20024;-78
2022/09/12 02:40:29;;;;;;;1.80;1.60;;;;;;;;;;4934862;29;20079;-77
2022/09/12 02:42:56;;;;;;;3.60;1.70;;;;;;;;;;4937381;29;20032;-78
2022/09/12 02:45:22;;;;;;;2.45;1.70;;;;;;;;;;4941115;29;20038;-77
2022/09/12 02:47:52;;;;;;;10.50;2.67;;;;;;;;;;4952583;29;20028;-75
2022/09/12 02:50:19;;;;;;;3.83;1.90;;;;;;;;;;4953398;29;20123;-78
2022/09/12 02:52:47;;;;;;;2.63;1.95;;;;;;;;;;4934336;29;20063;-78
2022/09/12 02:55:14;;;;;;;9.93;1.98;;;;;;;;;;4937722;29;20546;-78
2022/09/12 02:57:55;;;;;;;6.35;1.85;;;;;;;;;;4937847;29;20027;-79
2022/09/12 03:00:22;;;;;;;4.68;2.10;;;;;;;;;;4941806;29;20076;-79
2022/09/12 03:02:48;;;;;;;5.85;2.17;;;;;;;;;;4935902;29;20036;-76
2022/09/12 03:05:30;;;;;;;3.63;2.03;;;;;;;;;;4936691;29;20036;-78
2022/09/12 03:08:22;;;;;;;6.55;2.20;;;;;;;;;;4937169;29;20024;-78
2022/09/12 03:10:48;;;;;;;4.15;1.95;;;;;;;;;;4876673;29;20045;-78
2022/09/12 03:13:14;;;;;;;3.92;2.20;;;;;;;;;;4876921;29;20034;-78
2022/09/12 03:15:55;;;;;;;6.18;2.45;;;;;;;;;;4879624;29;20044;-79
2022/09/12 03:18:40;;;;;;;3.35;1.90;;;;;;;;;;4878565;29;20089;-77
2022/09/12 03:21:20;;;;;;;6.57;2.50;;;;;;;;;;4864105;29;20042;-78
2022/09/12 03:23:56;;;;;;;9.45;2.50;;;;;;;;;;4854706;29;20038;-78
2022/09/12 03:26:27;;;;;;;5.47;2.30;;;;;;;;;;4859572;29;20555;-79
2022/09/12 03:28:58;;;;;;;4.57;2.50;;;;;;;;;;4861810;29;20057;-78
2022/09/12 03:31:24;;;;;;;4.13;2.50;;;;;;;;;;4863728;29;20034;-78
2022/09/12 03:33:54;;;;;;;5.30;2.30;;;;;;;;;;4864728;29;20042;-75
2022/09/12 03:36:22;;;;;;;3.15;2.20;;;;;;;;;;4869406;29;20044;-77
2022/09/12 03:38:49;;;;;;;6.68;2.42;;;;;;;;;;4873459;29;20034;-77
2022/09/12 03:41:15;;;;;;;2.65;2.10;;;;;;;;;;4855152;29;20049;-78
2022/09/12 03:43:41;;;;;;;4.65;2.45;;;;;;;;;;4871257;29;20033;-78
2022/09/12 03:46:07;;;;;;;7.63;2.55;;;;;;;;;;4862205;29;20042;-77
2022/09/12 03:48:33;;;;;;;3.70;2.33;;;;;;;;;;4899416;29;20039;-78
2022/09/12 03:51:03;;;;;;;6.70;2.58;;;;;;;;;;4928082;29;20052;-78
2022/09/12 03:53:33;;;;;;;5.38;2.50;;;;;;;;;;4930755;29;20024;-78
2022/09/12 03:55:59;;;;;;;4.25;2.58;;;;;;;;;;4924616;29;20028;-76
2022/09/12 03:58:29;;;;;;;3.33;2.60;;;;;;;;;;4925683;29;20037;-77
2022/09/12 04:00:56;;;;;;;5.63;2.90;;;;;;;;;;4924635;29;20029;-78
2022/09/12 04:03:25;;;;;;;4.82;2.83;;;;;;;;;;4927376;29;20044;-78
2022/09/12 04:05:54;;;;;;;4.68;2.65;;;;;;;;;;4929127;29;20040;-78
2022/09/12 04:08:20;;;;;;;6.60;2.83;;;;;;;;;;4927922;29;20029;-78
2022/09/12 04:10:47;;;;;;;9.68;2.75;;;;;;;;;;4934101;29;20024;-79
2022/09/12 04:13:13;;;;;;;4.07;2.88;;;;;;;;;;4936492;29;20016;-78
2022/09/12 04:15:39;;;;;;;3.70;2.67;;;;;;;;;;4937293;29;20020;-76
2022/09/12 04:18:05;;;;;;;5.95;2.95;;;;;;;;;;4928214;29;20039;-76
2022/09/12 04:20:31;;;;;;;6.75;3.00;;;;;;;;;;4935984;29;20028;-78
2022/09/12 04:23:00;;;;;;;5.50;3.03;;;;;;;;;;4937476;29;20042;-78
2022/09/12 04:25:30;;;;;;;6.60;3.00;;;;;;;;;;4935856;29;20042;-78
2022/09/12 04:27:56;;;;;;;3.92;2.90;;;;;;;;;;4931277;29;20043;-76
2022/09/12 04:30:22;;;;;;;7.80;3.10;;;;;;;;;;4928692;29;20051;-78
2022/09/12 04:32:50;;;;;;;4.82;2.72;;;;;;;;;;4929541;29;20036;-78
2022/09/12 04:35:16;;;;;;;8.18;3.10;;;;;;;;;;4933745;29;20024;-78
2022/09/12 04:37:43;;;;;;;5.70;3.40;;;;;;;;;;4945161;29;20031;-76
2022/09/12 04:40:09;;;;;;;7.18;2.90;;;;;;;;;;4927027;29;20034;-78
2022/09/12 04:42:35;;;;;;;4.32;2.90;;;;;;;;;;4929324;29;20111;-78
2022/09/12 04:45:02;;;;;;;8.55;3.80;;;;;;;;;;4930691;29;20044;-77
2022/09/12 04:47:28;;;;;;;5.43;3.40;;;;;;;;;;4926728;29;20021;-78
2022/09/12 04:49:54;;;;;;;6.90;3.33;;;;;;;;;;4924458;29;20024;-77
2022/09/12 04:52:20;;;;;;;5.53;3.20;;;;;;;;;;4929738;29;20036;-76
2022/09/12 04:54:50;;;;;;;4.90;3.28;;;;;;;;;;4919844;29;20035;-77
2022/09/12 04:57:16;;;;;;;7.20;3.33;;;;;;;;;;4917637;29;20039;-76
2022/09/12 04:59:43;;;;;;;7.43;3.60;;;;;;;;;;4924624;29;20056;-76
2022/09/12 05:02:10;;;;;;;9.02;3.40;;;;;;;;;;4926252;29;20506;-77
2022/09/12 05:04:37;;;;;;;7.00;3.10;;;;;;;;;;4926025;29;20068;-76
2022/09/12 05:07:03;;;;;;;6.10;3.03;;;;;;;;;;4922416;29;20039;-77
2022/09/12 05:09:29;;;;;;;5.28;3.22;;;;;;;;;;4926159;29;20028;-76
2022/09/12 05:11:56;;;;;;;6.25;3.90;;;;;;;;;;4933482;29;20044;-78
2022/09/12 05:14:24;;;;;;;7.85;3.13;;;;;;;;;;4925330;29;20062;-76
2022/09/12 05:16:55;;;;;;;5.22;2.80;;;;;;;;;;4929140;29;20039;-76
2022/09/12 05:19:22;;;;;;;6.03;3.22;;;;;;;;;;4925616;29;20032;-76
2022/09/12 05:21:48;;;;;;;8.57;3.03;;;;;;;;;;4933227;29;20024;-77
2022/09/12 05:24:14;;;;;;;5.80;3.40;;;;;;;;;;4926671;29;20092;-76
2022/09/12 05:26:40;;;;;;;4.88;3.15;;;;;;;;;;4921267;29;20075;-76
2022/09/12 05:29:06;;;;;;;7.18;3.20;;;;;;;;;;4917496;29;20043;-76
2022/09/12 05:31:32;;;;;;;6.07;3.40;;;;;;;;;;4911085;29;20043;-75
2022/09/12 05:33:58;;;;;;;4.47;3.28;;;;;;;;;;4939183;29;20016;-78
2022/09/12 05:36:26;;;;;;;6.70;3.63;;;;;;;;;;4938791;29;20025;-78
2022/09/12 05:38:53;;;;;;;5.28;3.10;;;;;;;;;;4923472;29;20063;-76
2022/09/12 05:41:20;;;;;;;4.63;3.03;;;;;;;;;;4921669;29;20514;-78
2022/09/12 05:43:47;;;;;;;4.97;3.35;;;;;;;;;;4933143;29;20050;-75
2022/09/12 05:46:14;;;;;;;3.53;2.72;;;;;;;;;;4930199;29;20028;-75
2022/09/12 05:48:42;;;;;;;4.70;2.53;;;;;;;;;;4924305;29;20032;-77
2022/09/12 05:51:19;;;;;;;4.68;2.58;;;;;;;;;;4920047;29;20056;-82
2022/09/12 05:57:08;;;;;;;4.15;2.80;;;;;;;;;;4945297;29;20048;-80
2022/09/12 06:00:13;;;;;;;4.43;2.88;;;;;;;;;;4845136;29;20029;-80
2022/09/12 06:03:24;;;;;;;4.10;3.55;;;;;;;;;;4781211;29;20026;-80
2022/09/12 06:09:31;;;;;;;5.95;3.10;;;;;;;;;;4702593;30;20044;-87
2022/09/12 06:36:44;;;;;;;6.72;5.90;;;;;;;;;;4708647;26;20055;-78
2022/09/12 06:39:11;;;;;;;6.88;3.97;;;;;;;;;;4959120;29;20020;-77
2022/09/12 06:41:37;;;;;;;6.70;5.07;;;;;;;;;;4955467;29;20032;-77
2022/09/12 06:44:06;;;;;;;7.57;3.97;;;;;;;;;;4952763;29;20023;-79
2022/09/12 06:46:32;;;;;;;5.88;3.95;;;;;;;;;;4969391;29;20042;-77
2022/09/12 06:48:59;;;;;;;5.82;4.00;;;;;;;;;;4976077;29;20018;-79
2022/09/12 06:51:26;;;;;;;6.13;4.10;;;;;;;;;;4960245;29;20031;-78
2022/09/12 06:53:54;;;;;;;7.35;4.25;;;;;;;;;;4959468;29;20007;-77
2022/09/12 06:56:21;;;;;;;8.63;4.13;;;;;;;;;;4963285;28;20591;-77
2022/09/12 06:58:48;;;;;;;7.68;5.13;;;;;;;;;;4986874;28;20029;-77
2022/09/12 07:01:17;;;;;;;5.05;4.20;;;;;;;;;;4954746;29;20019;-76
2022/09/12 07:03:47;;;;;;;7.97;5.60;;;;;;;;;;4973179;28;20106;-77
2022/09/12 07:06:14;;;;;;;8.85;4.20;;;;;;;;;;4953365;29;20038;-79
2022/09/12 07:08:40;;;;;;;6.85;4.30;;;;;;;;;;4959935;28;20085;-79
2022/09/12 07:11:10;;;;;;;5.68;4.47;;;;;;;;;;4959741;28;20039;-76
2022/09/12 07:13:36;;;;;;;6.60;5.28;;;;;;;;;;4961304;28;20019;-80
2022/09/12 07:16:03;;;;;;;8.82;4.80;;;;;;;;;;4940493;29;20133;-78
2022/09/12 07:18:29;;;;;;;5.03;4.53;;;;;;;;;;4952117;28;20027;-84
2022/09/12 07:20:55;;;;;;;5.78;4.65;;;;;;;;;;4957044;28;20011;-81
2022/09/12 07:23:21;;;;;;;6.78;4.22;;;;;;;;;;4938773;28;20027;-79
2022/09/12 07:25:55;;;;;;;6.47;4.13;;;;;;;;;;4959605;28;20128;-85
2022/09/12 07:28:23;;;;;;;5.68;4.43;;;;;;;;;;4949841;28;20023;-91
2022/09/12 07:30:49;;;;;;;6.45;4.40;;;;;;;;;;4939455;29;20114;-88
2022/09/12 07:33:15;;;;;;;7.50;4.82;;;;;;;;;;4940591;28;20034;-92
2022/09/12 07:35:41;;;;;;;6.30;4.85;;;;;;;;;;4939447;29;20145;-84
2022/09/12 07:38:08;;;;;;;6.85;4.25;;;;;;;;;;4947322;28;20027;-91
2022/09/12 07:40:34;;;;;;;6.25;4.53;;;;;;;;;;4941170;29;20123;-90
2022/09/12 07:43:00;;;;;;;5.70;4.15;;;;;;;;;;4939143;29;20077;-88
2022/09/12 07:45:26;;;;;;;5.72;3.80;;;;;;;;;;4961514;28;20093;-91
2022/09/12 07:48:01;;;;;;;7.10;4.20;;;;;;;;;;4948692;28;20061;-88
2022/09/12 07:50:33;;;;;;;6.00;4.25;;;;;;;;;;4946624;29;20035;-88
2022/09/12 07:55:53;;;;;;;9.38;5.10;;;;;;;;;;4955222;28;20034;-81
2022/09/12 07:58:19;;;;;;;10.68;4.70;;;;;;;;;;4948368;28;20469;-90
2022/09/12 08:00:45;;;;;;;7.63;4.30;;;;;;;;;;4932733;29;20118;-84
2022/09/12 08:03:25;;;;;;;9.20;5.13;;;;;;;;;;4981783;28;20033;-87
2022/09/12 08:05:51;;;;;;;8.20;4.30;;;;;;;;;;4926940;29;20044;-90
2022/09/12 08:08:20;;;;;;;5.57;4.28;;;;;;;;;;4920609;29;20070;-89
2022/09/12 08:10:46;;;;;;;6.78;4.35;;;;;;;;;;4929210;29;20115;-86
2022/09/12 08:13:30;;;;;;;6.93;4.07;;;;;;;;;;4956974;28;20032;-81
2022/09/12 08:16:00;;;;;;;8.20;4.28;;;;;;;;;;4940253;29;20421;-80
2022/09/12 08:18:27;;;;;;;9.23;4.60;;;;;;;;;;4925169;29;20025;-80
2022/09/12 08:21:14;;;;;;;7.07;4.30;;;;;;;;;;4930275;29;20042;-79
2022/09/12 08:23:43;;;;;;;8.77;4.13;;;;;;;;;;4933125;29;20024;-79
2022/09/12 08:26:10;;;;;;;9.82;4.97;;;;;;;;;;4940669;29;20078;-79
2022/09/12 08:28:44;;;;;;;11.18;4.88;;;;;;;;;;4926921;29;20020;-79
2022/09/12 08:34:07;;;;;;;5.20;3.70;;;;;;;;;;4974225;28;20089;-79
2022/09/12 08:37:07;;;;;;;4.90;3.53;;;;;;;;;;4946359;28;20047;-79
2022/09/12 08:39:47;;;;;;;6.68;4.13;;;;;;;;;;4883741;29;20037;-79
2022/09/12 08:42:44;;;;;;;5.07;3.92;;;;;;;;;;4866965;29;20017;-79
2022/09/12 08:46:09;;;;;;;6.18;4.13;;;;;;;;;;4879429;29;20042;-79
2022/09/12 08:49:03;;;;;;;5.80;3.80;;;;;;;;;;4882567;29;20113;-80
2022/09/12 08:54:50;;;;;;;5.68;3.60;;;;;;;;;;4809575;30;20038;-79
2022/09/12 08:57:36;;;;;;;4.47;3.30;;;;;;;;;;4795090;29;20039;-79
2022/09/12 09:00:16;;;;;;;5.07;3.50;;;;;;;;;;4793513;29;20047;-78
2022/09/12 09:03:08;;;;;;;4.82;3.65;;;;;;;;;;4807833;29;20108;-79
2022/09/12 09:06:14;;;;;;;6.63;3.60;;;;;;;;;;4792456;30;20036;-79
2022/09/12 09:09:34;;;;;;;7.50;3.60;;;;;;;;;;4762249;30;20113;-79
2022/09/12 09:12:57;;;;;;;5.25;3.63;;;;;;;;;;4756597;30;20033;-79
2022/09/12 09:16:25;;;;;;;4.32;3.42;;;;;;;;;;4729494;30;20068;-80
2022/09/12 09:19:49;;;;;;;5.65;2.95;;;;;;;;;;4704848;30;20085;-79
2022/09/12 09:22:49;;;;;;;5.72;3.28;;;;;;;;;;4687901;30;20031;-79
2022/09/12 09:25:33;;;;;;;8.57;3.60;;;;;;;;;;4684242;30;20073;-79
2022/09/12 09:28:04;;;;;;;6.05;3.25;;;;;;;;;;4683822;30;20042;-79
2022/09/12 09:30:42;;;;;;;4.93;3.20;;;;;;;;;;4695430;30;20034;-79
2022/09/12 09:33:11;;;;;;;7.13;3.30;;;;;;;;;;4697912;30;20053;-75
2022/09/12 09:36:15;;;;;;;3.80;3.20;;;;;;;;;;4710697;30;20048;-79
2022/09/12 09:38:58;;;;;;;;;;;;;;;;;;4714818;30;20030;-79
2022/09/12 09:41:44;;;;;;;6.13;3.10;;;;;;;;;;4721010;30;19953;-77
2022/09/12 09:44:11;;;;;;;6.20;3.63;;;;;;;;;;4701978;30;20100;-75
2022/09/12 09:46:37;;;;;;;6.38;3.17;;;;;;;;;;4743134;30;20075;-76
2022/09/12 09:49:04;;;;;;;9.18;3.60;;;;;;;;;;4768468;30;20052;-76
2022/09/12 09:51:53;;;;;;;3.55;2.80;;;;;;;;;;4759845;30;20036;-75
2022/09/12 09:54:53;;;;;;;6.18;3.03;;;;;;;;;;4839207;29;20030;-79
2022/09/12 09:57:35;;;;;;;4.57;3.13;;;;;;;;;;4938548;29;20040;-76
2022/09/12 10:00:25;;;;;;;5.40;3.10;;;;;;;;;;4942289;29;20073;-80
2022/09/12 10:03:14;;;;;;;5.03;3.20;;;;;;;;;;4938193;29;20048;-78
2022/09/12 10:05:46;;;;;;;5.40;3.10;;;;;;;;;;4950329;29;20070;-73
2022/09/12 10:08:39;;;;;;;14.85;4.90;;;;;;;;;;4932611;29;20034;-77
2022/09/12 10:11:25;;;;;;;5.53;2.95;;;;;;;;;;4926617;29;20105;-77
2022/09/12 10:13:53;;;;;;;4.78;3.00;;;;;;;;;;4933378;29;20063;-77
2022/09/12 10:16:21;;;;;;;3.30;2.85;;;;;;;;;;4932910;29;20050;-74
2022/09/12 10:18:49;;;;;;;6.03;2.90;;;;;;;;;;4934062;29;20023;-74
2022/09/12 10:21:28;;;;;;;6.43;2.97;;;;;;;;;;4943004;29;20028;-74
2022/09/12 10:24:24;;;;;;;5.80;3.17;;;;;;;;;;4929781;29;20071;-75
2022/09/12 10:26:55;;;;;;;5.32;3.30;;;;;;;;;;4935890;29;20514;-75
2022/09/12 10:29:59;;;;;;;5.07;2.90;;;;;;;;;;4942463;29;20027;-78
2022/09/12 10:32:35;;;;;;;4.05;3.10;;;;;;;;;;4872201;29;20040;-74
2022/09/12 10:35:07;;;;;;;6.03;3.00;;;;;;;;;;4851012;29;20054;-73
2022/09/12 10:38:02;;;;;;;6.38;3.10;;;;;;;;;;4840047;29;20343;-78
2022/09/12 10:40:40;;;;;;;5.53;3.00;;;;;;;;;;4852384;29;20103;-73
2022/09/12 10:43:38;;;;;;;2.90;2.60;;;;;;;;;;4852109;29;20050;-75
2022/09/12 10:46:22;;;;;;;3.55;2.50;;;;;;;;;;4812457;29;20161;-75
2022/09/12 10:48:52;;;;;;;3.22;2.72;;;;;;;;;;4811087;29;20046;-76
2022/09/12 10:59:56;;;;;;;4.38;2.80;;;;;;;;;;4956875;26;20054;-73
2022/09/12 11:02:29;;;;;;;5.35;3.22;;;;;;;;;;4963941;28;20023;-73
2022/09/12 11:05:02;;;;;;;4.15;3.13;;;;;;;;;;4952528;28;20066;-71
2022/09/12 11:07:28;;;;;;;4.78;2.90;;;;;;;;;;4974497;28;20062;-72
2022/09/12 11:10:01;;;;;;;5.40;3.00;;;;;;;;;;4957937;28;20484;-71
2022/09/12 11:12:27;;;;;;;4.63;2.90;;;;;;;;;;4979951;28;20031;-72
2022/09/12 11:15:07;;;;;;;4.43;3.20;;;;;;;;;;4971393;28;20025;-72
2022/09/12 11:17:33;;;;;;;5.53;3.20;;;;;;;;;;4976660;28;20380;-72
2022/09/12 11:20:06;;;;;;;5.00;2.70;;;;;;;;;;4994123;28;20492;-72
2022/09/12 11:22:32;;;;;;;;;;;;;;;;;;4989065;28;20089;-72
2022/09/12 11:25:07;;;;;;;4.07;3.00;;;;;;;;;;4979594;28;19913;-72
2022/09/12 11:27:33;;;;;;;4.05;2.90;;;;;;;;;;4992168;28;20051;-72
2022/09/12 11:30:06;;;;;;;4.70;2.60;;;;;;;;;;4993422;28;20030;-71
2022/09/12 11:32:51;;;;;;;4.15;2.70;;;;;;;;;;4997697;28;20046;-74
2022/09/12 11:35:23;;;;;;;5.38;2.72;;;;;;;;;;4988745;28;20027;-70
2022/09/12 11:37:59;;;;;;;7.18;3.20;;;;;;;;;;4980242;28;20025;-72
2022/09/12 11:40:26;;;;;;;4.45;2.70;;;;;;;;;;4997607;28;20011;-71
2022/09/12 11:42:55;;;;;;;3.78;2.70;;;;;;;;;;4997858;28;20046;-71
2022/09/12 11:45:50;;;;;;;7.13;2.67;;;;;;;;;;5000149;28;20042;-71
2022/09/12 11:51:32;;;;;;;4.60;2.90;;;;;;;;;;4910907;29;20076;-77
2022/09/12 12:06:20;;;;;;;3.80;2.50;;;;;;;;;;4976564;28;20049;-83
2022/09/12 12:09:05;;;;;;;3.53;2.60;;;;;;;;;;4974549;28;20575;-80
2022/09/12 12:11:42;;;;;;;4.43;2.55;;;;;;;;;;4961711;28;20539;-80
2022/09/12 12:14:40;;;;;;;5.95;2.50;;;;;;;;;;4988578;28;20019;-83
2022/09/12 12:17:55;;;;;;;3.58;2.40;;;;;;;;;;4918814;29;20029;-82
2022/09/12 12:20:31;;;;;;;4.00;2.67;;;;;;;;;;4903309;29;20045;-73
2022/09/12 12:26:19;;;;;;;4.45;2.47;;;;;;;;;;4914793;29;20063;-78
2022/09/12 12:29:06;;;;;;;5.63;2.75;;;;;;;;;;4893219;29;20036;-80
2022/09/12 12:31:52;;;;;;;4.32;2.58;;;;;;;;;;4900893;29;20131;-76
2022/09/12 12:34:21;;;;;;;3.35;2.50;;;;;;;;;;4891596;29;20041;-75
2022/09/12 12:36:49;;;;;;;4.28;2.30;;;;;;;;;;4878284;29;20035;-74
2022/09/12 12:39:42;;;;;;;3.75;2.70;;;;;;;;;;4896557;29;20040;-74
2022/09/12 12:42:08;;;;;;;9.50;2.60;;;;;;;;;;4910257;29;20175;-73
2022/09/12 12:44:50;;;;;;;2.53;2.30;;;;;;;;;;4913829;29;20048;-73
2022/09/12 12:47:31;;;;;;;2.50;2.20;;;;;;;;;;4915179;29;20047;-73
2022/09/12 12:50:02;;;;;;;7.18;2.60;;;;;;;;;;4914647;29;20054;-73
2022/09/12 12:52:31;;;;;;;8.50;2.30;;;;;;;;;;4931624;28;20062;-74
2022/09/12 12:54:59;;;;;;;4.13;2.50;;;;;;;;;;4991906;28;20031;-73
2022/09/12 12:57:28;;;;;;;3.65;2.30;;;;;;;;;;4991008;28;20500;-73
2022/09/12 12:59:58;;;;;;;4.95;2.67;;;;;;;;;;4984401;28;20024;-73
2022/09/12 13:02:27;;;;;;;6.47;2.88;;;;;;;;;;4990698;28;20072;-75
2022/09/12 13:05:04;;;;;;;3.97;2.40;;;;;;;;;;4977097;28;20019;-73
2022/09/12 13:07:39;;;;;;;7.18;2.50;;;;;;;;;;4977651;28;20020;-76
2022/09/12 13:10:25;;;;;;;4.15;2.30;;;;;;;;;;4965588;29;20028;-73
2022/09/12 13:12:52;;;;;;;4.18;2.42;;;;;;;;;;4969341;28;20126;-73
2022/09/12 13:15:36;;;;;;;5.05;2.80;;;;;;;;;;4971231;28;20059;-74
2022/09/12 13:18:14;;;;;;;4.30;2.47;;;;;;;;;;4994558;28;20015;-73
2022/09/12 13:20:50;;;;;;;3.25;2.60;;;;;;;;;;4992778;28;20046;-74
2022/09/12 13:23:27;;;;;;;3.88;2.40;;;;;;;;;;4963744;28;20031;-73
2022/09/12 13:26:03;;;;;;;3.38;2.63;;;;;;;;;;4958302;29;20062;-73
2022/09/12 13:28:32;;;;;;;4.65;2.22;;;;;;;;;;4955088;29;20036;-75
2022/09/12 13:31:23;;;;;;;2.85;2.30;;;;;;;;;;4952587;29;20028;-73
2022/09/12 13:33:49;;;;;;;7.82;6.57;;;;;;;;;;4974858;28;20004;-74
2022/09/12 13:36:30;;;;;;;2.85;2.35;;;;;;;;;;4972976;28;20134;-73
2022/09/12 13:39:31;;;;;;;2.50;2.30;;;;;;;;;;4974330;28;20405;-73
2022/09/12 13:42:20;;;;;;;6.45;2.38;;;;;;;;;;4977770;28;20031;-74
2022/09/12 13:45:06;;;;;;;4.68;2.20;;;;;;;;;;4979062;28;20042;-73
2022/09/12 13:47:35;;;;;;;2.97;2.22;;;;;;;;;;4970939;28;20038;-73
2022/09/12 13:50:02;;;;;;;6.07;2.53;;;;;;;;;;4966457;28;20040;-73
2022/09/12 13:52:52;;;;;;;5.65;2.30;;;;;;;;;;4987011;28;20050;-73
2022/09/12 13:55:25;;;;;;;2.70;2.40;;;;;;;;;;4985304;28;20028;-72
2022/09/12 13:58:05;;;;;;;3.58;2.40;;;;;;;;;;4967923;28;20058;-73
2022/09/12 14:00:36;;;;;;;4.30;2.20;;;;;;;;;;4979174;28;20092;-73
2022/09/12 14:06:07;;;;;;;4.50;2.35;;;;;;;;;;4983027;28;20058;-72
2022/09/12 14:08:33;;;;;;;2.92;2.50;;;;;;;;;;4979253;28;20019;-73
2022/09/12 14:11:19;;;;;;;3.55;2.25;;;;;;;;;;4978938;28;20038;-73
2022/09/12 14:13:49;;;;;;;7.32;2.42;;;;;;;;;;4977758;28;20030;-73
2022/09/12 14:16:15;;;;;;;2.88;2.25;;;;;;;;;;4992005;28;20031;-72
2022/09/12 14:18:44;;;;;;;2.55;2.17;;;;;;;;;;4988016;28;20098;-73
2022/09/12 14:21:19;;;;;;;3.67;1.85;;;;;;;;;;4994038;28;20027;-73
2022/09/12 14:23:47;;;;;;;3.92;2.38;;;;;;;;;;4977586;29;20042;-73
2022/09/12 14:26:22;;;;;;;6.15;3.47;;;;;;;;;;4980156;28;20019;-73
2022/09/12 14:28:51;;;;;;;2.63;2.15;;;;;;;;;;4976992;28;20054;-74
2022/09/12 14:31:26;;;;;;;2.80;2.40;;;;;;;;;;4972347;29;20054;-73
2022/09/12 14:33:53;;;;;;;5.38;2.47;;;;;;;;;;4973886;28;20070;-73
2022/09/12 14:36:28;;;;;;;3.05;2.17;;;;;;;;;;4952785;28;20059;-74
2022/09/12 14:39:23;;;;;;;4.43;2.50;;;;;;;;;;4965200;28;20027;-74
2022/09/12 14:42:01;;;;;;;3.88;2.60;;;;;;;;;;4957617;28;20040;-73
2022/09/12 14:44:28;;;;;;;6.68;2.13;;;;;;;;;;4973894;28;20026;-74
2022/09/12 14:47:00;;;;;;;7.05;2.60;;;;;;;;;;4968892;28;20054;-73
2022/09/12 14:49:35;;;;;;;4.63;2.60;;;;;;;;;;4952565;29;20019;-73
2022/09/12 14:52:04;;;;;;;4.90;2.60;;;;;;;;;;4948800;29;20474;-73
2022/09/12 14:54:31;;;;;;;8.65;2.33;;;;;;;;;;4955407;28;20057;-74
2022/09/12 14:57:05;;;;;;;7.03;2.60;;;;;;;;;;4961281;28;20120;-75
2022/09/12 14:59:34;;;;;;;5.43;2.50;;;;;;;;;;4955335;28;20082;-71
2022/09/12 15:02:15;;;;;;;7.43;2.60;;;;;;;;;;4954577;28;20056;-73
2022/09/12 15:04:48;;;;;;;8.93;2.65;;;;;;;;;;4956664;28;20023;-71
2022/09/12 15:07:34;;;;;;;6.65;2.50;;;;;;;;;;4973434;28;20027;-75
2022/09/12 15:15:52;;;;;;;4.60;2.40;;;;;;;;;;5080077;23;20130;-73
2022/09/12 15:18:18;;;;;;;5.97;2.75;;;;;;;;;;4976795;28;20027;-72
2022/09/12 15:20:45;;;;;;;4.32;2.53;;;;;;;;;;4977530;28;20023;-72
2022/09/12 15:23:15;;;;;;;4.35;2.45;;;;;;;;;;4986520;28;20058;-72
2022/09/12 15:25:41;;;;;;;6.10;2.70;;;;;;;;;;4985652;28;20031;-72
2022/09/12 15:28:20;;;;;;;5.93;2.90;;;;;;;;;;4958665;28;20011;-72
2022/09/12 15:30:49;;;;;;;5.78;2.78;;;;;;;;;;4978692;28;20024;-72
2022/09/12 15:33:15;;;;;;;6.32;2.90;;;;;;;;;;4967891;28;20030;-72
2022/09/12 15:35:42;;;;;;;4.28;2.67;;;;;;;;;;4969413;28;20049;-72
2022/09/12 15:38:08;;;;;;;3.10;2.40;;;;;;;;;;4989084;28;20027;-72
2022/09/12 15:40:34;;;;;;;6.35;2.50;;;;;;;;;;4976479;28;20016;-72
2022/09/12 15:43:00;;;;;;;5.20;2.97;;;;;;;;;;4973581;28;20043;-75
2022/09/12 15:45:27;;;;;;;8.23;2.90;;;;;;;;;;4984244;28;20031;-72
2022/09/12 15:47:54;;;;;;;7.15;2.78;;;;;;;;;;4990098;28;20026;-72
2022/09/12 15:50:20;;;;;;;4.00;2.80;;;;;;;;;;4992225;28;20031;-72
2022/09/12 15:52:46;;;;;;;3.95;2.83;;;;;;;;;;4982844;28;20027;-72
2022/09/12 15:55:16;;;;;;;4.78;2.63;;;;;;;;;;4977193;28;20124;-72
2022/09/12 15:57:42;;;;;;;8.15;2.67;;;;;;;;;;4974071;28;20027;-72
2022/09/12 16:00:09;;;;;;;6.97;2.80;;;;;;;;;;4972399;28;20023;-72
2022/09/12 16:02:35;;;;;;;4.63;2.83;;;;;;;;;;4992328;28;20023;-72
2022/09/12 16:05:01;;;;;;;6.80;3.10;;;;;;;;;;4987675;28;20043;-72
2022/09/12 16:07:27;;;;;;;7.70;2.70;;;;;;;;;;4979437;28;20034;-72
2022/09/12 16:09:53;;;;;;;4.53;2.60;;;;;;;;;;4988648;28;20054;-72
2022/09/12 16:12:19;;;;;;;6.07;2.72;;;;;;;;;;4973573;28;20388;-71
2022/09/12 16:14:45;;;;;;;7.88;2.85;;;;;;;;;;4974837;28;20031;-72
2022/09/12 16:17:11;;;;;;;5.63;2.70;;;;;;;;;;4979589;28;20075;-72
2022/09/12 16:19:46;;;;;;;9.32;2.83;;;;;;;;;;4990387;28;20042;-73
2022/09/12 16:22:18;;;;;;;4.38;2.60;;;;;;;;;;4988876;28;20101;-72
2022/09/12 16:24:44;;;;;;;6.35;2.85;;;;;;;;;;4974342;28;20023;-72
2022/09/12 16:27:10;;;;;;;6.13;2.90;;;;;;;;;;4979839;28;20029;-72
2022/09/12 16:29:37;;;;;;;6.88;2.70;;;;;;;;;;4982131;28;20027;-72
2022/09/12 16:32:04;;;;;;;12.43;3.00;;;;;;;;;;4970152;28;20035;-71
2022/09/12 16:34:30;;;;;;;5.70;2.70;;;;;;;;;;4977859;28;20023;-73
2022/09/12 16:36:56;;;;;;;8.45;3.30;;;;;;;;;;4971397;28;20029;-72
2022/09/12 16:39:22;;;;;;;5.25;3.10;;;;;;;;;;4969318;28;20027;-72